Airport Name : Calgary Springbank

Other Name : Calgary

ICAO : CYBW

IATA : YBW

FAA :

Latitude : 51.103056

Longitude : -114.374444

Country : Canada

Local Date and Time : 10/23/2018 2:06:00 AM

 

TAF (Terminal Aerodrome Forecast)

TAF AMD CYBW 230303Z 2303/2304 15005KT P6SM SKC RMK FCST BASED ON AUTO OBS. NXT FCST WILL BE ISSUED AT 231145Z

 

METAR (METeorological Aerodrome Report)

CYBW 230700Z AUTO 29004KT 9SM CLR M02/M03 A3000 RMK SLP198

CYBW 230600Z AUTO 32007KT 9SM CLR M02/M04 A3001 RMK SLP204

CYBW 230500Z AUTO 31002KT 9SM CLR M00/M04 A3002 RMK SLP211